Latest Weather Observations for Bourke

IDN60801

Issued at 10:32 am EST Monday 31 August 2015 (issued every 30 minutes, with the page automatically refreshed every 10 minutes)

About weather observations | Map of weather stations | Latest weather observations for NSW | Other Formats
Station Details ID: 048245 Name: BOURKE AIRPORT AWS Lat: -30.04 Lon: 145.95 Height: 107.3 m
Data from the previous 72 hours. | See also: Recent months at Bourke
Date/Time
EST
Temp
°C
App
Temp
°C
Dew
Point
Rel
Hum
%
Delta-T
°C
Wind Press
QNH
hPa
Press
MSL
hPa
Rain
since 9 am
mm
Dir
 
Spd
km/h
Gust
km/h
Spd
kts
Gust
kts
31/10:30am 14.8 9.8 3.6 47 5.1 SSW 19 26 10 14 1021.3 1021.3 0.0
31/10:00am 13.6 9.4 3.7 51 4.5 SSW 15 20 8 11 1021.6 1021.6 0.0
31/09:30am 12.8 9.0 4.0 55 4.0 SW 13 15 7 8 1021.4 1021.4 0.0
31/09:00am 11.7 9.1 4.4 61 3.3 SSW 7 9 4 5 1021.2 1021.2 0.0
31/08:30am 10.1 7.6 4.5 68 2.5 SSW 7 9 4 5 1021.2 1021.2 0.0
31/08:00am 7.9 6.6 4.1 77 1.7 CALM 0 0 0 0 1021.1 1021.1 0.0
31/07:30am 4.7 3.1 2.7 87 0.8 CALM 0 0 0 0 1021.0 1021.0 0.0
31/07:00am 1.5 -1.6 0.2 91 0.5 W 6 6 3 3 1020.9 1020.9 0.0
31/06:30am 0.9 -2.6 -1.0 87 0.7 W 7 7 4 4 1020.7 1020.7 0.0
31/06:00am 1.7 -1.9 0.5 92 0.4 SW 9 9 5 5 1020.5 1020.5 0.0
31/05:30am 1.5 -1.8 0.2 91 0.5 W 7 9 4 5 1020.4 1020.4 0.0
31/05:00am 1.5 -1.0 -0.7 85 0.8 WSW 2 6 1 3 1020.2 1020.2 0.0
31/04:30am 2.5 -0.6 0.2 85 0.9 SW 6 6 3 3 1020.0 1020.0 0.0
31/04:00am 3.1 0.7 0.0 80 1.2 SSW 2 6 1 3 1020.1 1020.1 0.0
31/03:30am 5.1 2.0 1.6 78 1.4 S 7 9 4 5 1020.2 1020.2 0.0
31/03:00am 6.7 3.5 2.8 76 1.6 S 9 11 5 6 1020.4 1020.4 0.0
31/02:30am 7.1 3.5 3.2 76 1.7 S 11 13 6 7 1020.6 1020.6 0.0
31/02:00am 6.9 3.3 2.8 75 1.7 SSW 11 13 6 7 1021.0 1021.0 0.0
31/01:30am 7.5 4.2 2.4 70 2.1 SW 9 11 5 6 1021.2 1021.2 0.0
31/01:00am 9.0 5.1 3.2 67 2.5 SSW 13 19 7 10 1021.4 1021.4 0.0
31/12:30am 9.6 5.3 3.4 65 2.7 S 15 20 8 11 1021.2 1021.2 0.0
31/12:00am 9.8 5.9 3.3 64 2.8 S 13 19 7 10 1021.2 1021.2 0.0
 
Date/Time
EST
Temp
°C
App
Temp
°C
Dew
Point
Rel
Hum
%
Delta-T
°C
Wind Press
QNH
hPa
Press
MSL
hPa
Rain
since 9 am
mm
Dir
 
Spd
km/h
Gust
km/h
Spd
kts
Gust
kts
30/11:30pm 10.7 6.0 3.3 60 3.2 SSW 17 20 9 11 1021.1 1021.1 0.0
30/11:00pm 10.8 6.6 3.8 62 3.1 SSW 15 22 8 12 1021.3 1021.3 0.0
30/10:30pm 7.6 3.8 1.7 66 2.4 SSW 11 11 6 6 1021.4 1021.4 0.0
30/10:00pm 7.8 4.4 1.9 66 2.4 SW 9 11 5 6 1021.5 1021.5 0.0
30/09:30pm 7.8 4.3 1.4 64 2.6 SW 9 11 5 6 1021.5 1021.5 0.0
30/09:00pm 8.1 5.0 1.3 62 2.8 WSW 7 11 4 6 1021.5 1021.5 0.0
30/08:30pm 8.0 5.1 1.4 63 2.7 WSW 6 9 3 5 1021.5 1021.5 0.0
30/08:00pm 9.2 6.1 1.4 58 3.2 W 7 9 4 5 1021.2 1021.2 0.0
30/07:30pm 10.0 6.9 1.4 55 3.6 SW 7 9 4 5 1020.9 1020.9 0.0
30/07:00pm 11.9 8.9 1.0 47 4.6 SW 6 7 3 4 1020.5 1020.5 0.0
30/06:30pm 12.7 9.6 1.1 45 4.9 WSW 7 9 4 5 1020.2 1020.2 0.0
30/06:00pm 14.2 11.0 0.5 39 5.8 SSW 7 9 4 5 1019.9 1019.9 0.0
30/05:30pm 16.0 11.5 -0.2 33 6.9 SW 13 20 7 11 1019.8 1019.8 0.0
30/05:00pm 16.6 11.7 -0.6 31 7.3 SW 15 26 8 14 1019.6 1019.6 0.0
30/04:30pm 17.0 11.7 -0.7 30 7.5 SSW 17 26 9 14 1019.6 1019.6 0.0
30/04:00pm 17.0 11.7 -0.7 30 7.5 SW 17 28 9 15 1019.8 1019.8 0.0
30/03:30pm 17.0 11.8 -0.2 31 7.4 SW 17 26 9 14 1020.0 1020.0 0.0
30/03:00pm 17.4 12.3 0.6 32 7.4 S 17 24 9 13 1020.2 1020.2 0.0
30/02:30pm 17.1 12.3 -0.1 31 7.4 SSW 15 26 8 14 1020.6 1020.6 0.0
30/02:00pm 15.8 10.8 -1.3 31 7.1 SW 15 24 8 13 1020.8 1020.8 0.0
30/01:30pm 15.9 11.3 -1.2 31 7.1 SW 13 37 7 20 1021.3 1021.3 0.0
30/01:00pm 15.6 10.5 0.6 36 6.5 SW 17 26 9 14 1021.7 1021.7 0.0
30/12:30pm 14.9 9.7 0.4 37 6.2 WSW 17 28 9 15 1022.2 1022.2 0.0
30/12:00pm 14.6 9.5 0.8 39 5.9 WSW 17 26 9 14 1022.7 1022.7 0.0
30/11:30am 13.7 8.9 0.4 40 5.6 SSW 15 24 8 13 1023.3 1023.3 0.0
30/11:00am 13.7 9.4 0.7 41 5.5 SSW 13 20 7 11 1023.7 1023.7 0.0
30/10:30am 13.2 9.0 1.5 45 5.0 S 13 26 7 14 1023.9 1023.9 0.0
30/10:00am 12.6 8.0 1.3 46 4.8 S 15 24 8 13 1024.1 1024.1 0.0
30/09:30am 12.0 7.7 1.3 48 4.5 SSE 13 19 7 10 1024.2 1024.2 0.0
30/09:00am 11.2 7.5 2.5 55 3.7 S 11 13 6 7 1024.1 1024.1 0.0
30/08:30am 10.4 7.2 3.0 60 3.2 S 9 13 5 7 1024.1 1024.1 0.0
30/08:00am 9.4 6.3 3.6 67 2.5 SSE 9 13 5 7 1024.0 1024.0 0.0
30/07:30am 6.4 4.2 3.4 81 1.3 SSW 4 6 2 3 1023.7 1023.7 0.0
30/07:00am 4.0 1.1 1.7 85 0.9 SSW 6 7 3 4 1023.4 1023.4 0.0
30/06:30am 4.2 0.8 1.9 85 0.9 SW 9 9 5 5 1023.0 1023.0 0.0
30/06:00am 4.3 1.3 1.8 84 1.0 SSW 7 9 4 5 1022.6 1022.6 0.0
30/05:30am 5.1 2.1 2.3 82 1.1 S 7 11 4 6 1022.4 1022.4 0.0
30/05:00am 5.4 1.8 2.9 84 1.0 SSW 11 11 6 6 1022.3 1022.3 0.0
30/04:30am 4.4 1.4 2.1 85 0.9 SSW 7 9 4 5 1022.3 1022.3 0.0
30/04:00am 5.0 2.0 2.2 82 1.1 SSW 7 9 4 5 1022.1 1022.1 0.0
30/03:30am 5.1 2.1 1.9 80 1.3 S 7 9 4 5 1022.1 1022.1 0.0
30/03:00am 5.4 2.5 2.4 81 1.2 SSW 7 9 4 5 1022.3 1022.3 0.0
30/02:30am 5.6 2.6 1.7 76 1.6 S 7 9 4 5 1022.5 1022.5 0.0
30/02:00am 5.9 2.9 2.2 77 1.5 SSW 7 9 4 5 1022.9 1022.9 0.0
30/01:30am 6.5 3.5 2.2 74 1.8 SSE 7 9 4 5 1023.0 1023.0 0.0
30/01:00am 8.2 4.5 2.4 67 2.4 SSW 11 11 6 6 1023.2 1023.2 0.0
30/12:30am 8.9 6.2 2.7 65 2.6 SSW 6 7 3 4 1023.5 1023.5 0.0
30/12:00am 9.7 6.9 3.0 63 2.9 S 7 9 4 5 1023.4 1023.4 0.0
 
Date/Time
EST
Temp
°C
App
Temp
°C
Dew
Point
Rel
Hum
%
Delta-T
°C
Wind Press
QNH
hPa
Press
MSL
hPa
Rain
since 9 am
mm
Dir
 
Spd
km/h
Gust
km/h
Spd
kts
Gust
kts
29/11:30pm 10.0 6.7 2.6 60 3.2 SSW 9 11 5 6 1023.5 1023.5 0.0
29/11:00pm 10.7 7.0 2.5 57 3.5 S 11 15 6 8 1023.4 1023.4 0.0
29/10:30pm 11.7 7.3 2.5 53 4.0 S 15 19 8 10 1023.4 1023.4 0.0
29/10:00pm 12.1 8.1 2.8 53 4.1 SSW 13 15 7 8 1023.5 1023.5 0.0
29/09:30pm 12.7 8.7 2.8 51 4.4 S 13 17 7 9 1023.3 1023.3 0.0
29/09:00pm 13.4 9.0 2.9 49 4.7 S 15 19 8 10 1023.1 1023.1 0.0
29/08:30pm 14.4 9.7 2.9 46 5.2 S 17 22 9 12 1022.9 1022.9 0.0
29/08:00pm 14.9 11.4 3.4 46 5.2 S 11 15 6 8 1022.7 1022.7 0.0
29/07:30pm 15.6 11.3 3.4 44 5.6 S 15 19 8 10 1022.5 1022.5 0.0
29/07:00pm 15.9 12.1 3.7 44 5.6 S 13 19 7 10 1022.4 1022.4 0.0
29/06:30pm 16.3 12.1 3.7 43 5.9 S 15 19 8 10 1022.1 1022.1 0.0
29/06:00pm 16.7 12.4 3.4 41 6.1 S 15 26 8 14 1021.9 1021.9 0.0
29/05:30pm 17.3 12.7 3.6 40 6.4 S 17 20 9 11 1021.5 1021.5 0.0
29/05:00pm 17.8 13.9 3.3 38 6.7 SSW 13 17 7 9 1021.3 1021.3 0.0
29/04:30pm 18.0 13.8 3.9 39 6.7 SSW 15 20 8 11 1021.2 1021.2 0.0
29/04:00pm 18.5 14.9 3.2 36 7.1 S 11 17 6 9 1021.2 1021.2 0.0
29/03:30pm 18.3 15.0 4.5 40 6.6 S 11 17 6 9 1021.2 1021.2 0.0
29/03:00pm 18.4 15.0 4.2 39 6.7 SE 11 17 6 9 1021.2 1021.2 0.0
29/02:30pm 18.1 13.9 3.9 39 6.7 S 15 26 8 14 1021.4 1021.4 0.0
29/02:00pm 20.0 17.0 4.1 35 7.6 WSW 9 17 5 9 1021.7 1021.7 0.0
29/01:30pm 19.6 15.8 3.7 35 7.6 SSW 13 17 7 9 1022.2 1022.2 0.0
29/01:00pm 18.1 15.0 3.6 38 6.8 NNW 9 13 5 7 1022.6 1022.6 0.0
29/12:30pm 17.5 14.5 4.1 41 6.3 ESE 9 15 5 8 1023.3 1023.3 0.0
29/12:00pm 18.5 15.7 5.0 41 6.5 ENE 9 20 5 11 1023.8 1023.8 0.0
29/11:30am 17.5 14.5 5.8 46 5.7 ESE 11 17 6 9 1024.4 1024.4 0.0
29/11:00am 17.7 15.4 7.4 51 5.2 E 9 17 5 9 1024.9 1024.9 0.0
29/10:30am 16.6 13.8 7.0 53 4.8 E 11 17 6 9 1025.1 1025.1 0.0
29/10:00am 16.1 13.5 7.8 58 4.2 E 11 20 6 11 1025.5 1025.5 0.0
29/09:30am 14.8 11.7 7.4 61 3.7 E 13 15 7 8 1025.6 1025.6 0.0
29/09:00am 13.2 10.9 7.4 68 2.8 SE 9 11 5 6 1025.4 1025.4 0.0
29/08:30am 11.6 9.5 6.5 71 2.4 ESE 7 11 4 6 1025.3 1025.3 0.0
29/08:00am 10.0 7.0 6.2 77 1.8 SE 11 15 6 8 1024.8 1024.8 0.0
29/07:30am 7.7 4.8 4.8 82 1.3 SE 9 13 5 7 1024.5 1024.5 0.0
29/07:00am 5.3 1.9 3.8 90 0.6 SE 11 11 6 6 1024.3 1024.3 0.0
29/06:30am 4.9 2.1 2.9 87 0.8 SSE 7 9 4 5 1024.1 1024.1 0.0
29/06:00am 6.0 2.5 3.5 84 1.0 SSE 11 13 6 7 1023.9 1023.9 0.0
29/05:30am 6.4 2.5 3.6 82 1.2 SSE 13 15 7 8 1023.9 1023.9 0.0
29/05:00am 6.9 2.7 3.9 81 1.3 SSE 15 17 8 9 1023.7 1023.7 0.0
29/04:30am 7.0 3.1 3.6 79 1.5 SSE 13 17 7 9 1023.6 1023.6 0.0
29/04:00am 7.3 3.5 3.7 78 1.5 SSE 13 17 7 9 1023.5 1023.5 0.0
29/03:30am 7.7 3.8 3.6 75 1.8 SSE 13 15 7 8 1023.4 1023.4 0.0
29/03:00am 8.0 4.1 3.5 73 1.9 SSE 13 15 7 8 1023.5 1023.5 0.0
29/02:30am 8.4 4.9 3.5 71 2.1 S 11 13 6 7 1023.7 1023.7 0.0
29/02:00am 9.5 5.6 3.5 66 2.6 SSE 13 17 7 9 1023.9 1023.9 0.0
29/01:30am 9.2 5.4 3.8 69 2.4 SSE 13 17 7 9 1023.9 1023.9 0.0
29/01:00am 7.2 3.8 1.9 69 2.2 S 9 11 5 6 1024.2 1024.2 0.0
29/12:30am 7.1 4.0 1.6 68 2.2 S 7 9 4 5 1024.2 1024.2 0.0
29/12:00am 8.2 4.8 1.6 63 2.7 SW 9 11 5 6 1024.1 1024.1 0.0
 
Date/Time
EST
Temp
°C
App
Temp
°C
Dew
Point
Rel
Hum
%
Delta-T
°C
Wind Press
QNH
hPa
Press
MSL
hPa
Rain
since 9 am
mm
Dir
 
Spd
km/h
Gust
km/h
Spd
kts
Gust
kts
28/11:30pm 8.6 5.1 1.5 61 2.9 SW 9 11 5 6 1024.3 1024.3 0.0
28/11:00pm 9.4 6.0 1.6 58 3.2 SW 9 11 5 6 1024.3 1024.3 0.0
28/10:30pm 9.3 5.9 1.7 59 3.2 SW 9 11 5 6 1024.4 1024.4 0.0
28/10:00pm 9.6 6.2 1.8 58 3.3 SW 9 9 5 5 1024.3 1024.3 0.0
28/09:30pm 9.2 6.1 1.6 59 3.2 WSW 7 9 4 5 1024.3 1024.3 0.0
28/09:00pm 10.4 7.3 1.5 54 3.7 WSW 7 9 4 5 1024.2 1024.2 0.0
28/08:30pm 10.2 6.9 2.6 59 3.3 WSW 9 11 5 6 1024.0 1024.0 0.0
28/08:00pm 10.2 7.2 2.1 57 3.4 WSW 7 9 4 5 1023.8 1023.8 0.0
28/07:30pm 11.7 8.7 1.9 51 4.2 WSW 7 9 4 5 1023.6 1023.6 0.0
28/07:00pm 13.0 9.9 1.4 45 5.0 WSW 7 9 4 5 1023.2 1023.2 0.0
28/06:30pm 13.8 11.0 2.1 45 5.1 W 6 9 3 5 1023.1 1023.1 0.0
28/06:00pm 16.3 13.2 0.0 33 7.0 WSW 6 7 3 4 1022.8 1022.8 0.0
28/05:30pm 18.2 14.8 -0.6 28 8.1 WSW 7 11 4 6 1022.5 1022.5 0.0
28/05:00pm 18.5 14.2 -1.3 26 8.4 SW 11 13 6 7 1022.3 1022.3 0.0
28/04:30pm 18.8 14.4 -2.2 24 8.8 SW 11 20 6 11 1022.2 1022.2 0.0
28/04:00pm 19.2 15.0 -0.7 26 8.6 SSE 11 20 6 11 1022.1 1022.1 0.0
28/03:30pm 19.3 14.4 -0.7 26 8.7 SSW 15 20 8 11 1022.2 1022.2 0.0
28/03:00pm 18.8 15.0 -1.1 26 8.5 S 9 15 5 8 1022.3 1022.3 0.0
28/02:30pm 18.9 14.0 -0.5 27 8.4 SW 15 20 8 11 1022.7 1022.7 0.0
28/02:00pm 19.0 14.6 0.1 28 8.3 W 13 19 7 10 1023.0 1023.0 0.0
28/01:30pm 18.5 14.1 0.2 29 8.1 WSW 13 26 7 14 1023.4 1023.4 0.0
28/01:00pm 18.1 14.8 -0.2 29 7.9 WSW 7 20 4 11 1024.1 1024.1 0.0
28/12:30pm 18.0 13.6 0.6 31 7.7 WSW 13 20 7 11 1024.6 1024.6 0.0
28/12:00pm 17.5 12.8 1.1 33 7.2 SSW 15 20 8 11 1025.2 1025.2 0.0
28/11:30am 17.4 13.5 1.4 34 7.1 SW 11 17 6 9 1025.6 1025.6 0.0
28/11:00am 17.1 12.6 2.3 37 6.7 SSE 15 20 8 11 1025.9 1025.9 0.0

Other Formats:

Comma delimited format used in spreadsheet applications
http://www.bom.gov.au/fwo/IDN60801/IDN60801.94703.axf

JavaScript Object Notation format (JSON) in row-major order
http://www.bom.gov.au/fwo/IDN60801/IDN60801.94703.json